sensor_id;sensor_type;location;lat;lon;timestamp;pressure;altitude;pressure_sealevel;temperature;humidity
52249;BME280;38541;48.130;8.378;2023-04-30T00:02:15;92930.34;;;10.95;68.61
52249;BME280;38541;48.130;8.378;2023-04-30T00:04:41;92931.94;;;10.96;69.06
52249;BME280;38541;48.130;8.378;2023-04-30T00:07:08;92927.72;;;11.00;69.11
52249;BME280;38541;48.130;8.378;2023-04-30T00:09:34;92927.72;;;10.90;68.70
52249;BME280;38541;48.130;8.378;2023-04-30T00:12:00;92929.78;;;10.88;68.82
52249;BME280;38541;48.130;8.378;2023-04-30T00:14:27;92925.88;;;10.90;68.85
52249;BME280;38541;48.130;8.378;2023-04-30T00:16:53;92925.34;;;10.88;69.14
52249;BME280;38541;48.130;8.378;2023-04-30T00:19:20;92923.00;;;10.92;69.15
52249;BME280;38541;48.130;8.378;2023-04-30T00:21:46;92927.16;;;10.88;68.93
52249;BME280;38541;48.130;8.378;2023-04-30T00:24:13;92921.41;;;10.91;69.16
52249;BME280;38541;48.130;8.378;2023-04-30T00:26:39;92919.03;;;10.84;69.17
52249;BME280;38541;48.130;8.378;2023-04-30T00:29:06;92921.13;;;10.87;69.80
52249;BME280;38541;48.130;8.378;2023-04-30T00:31:32;92923.47;;;10.83;69.60
52249;BME280;38541;48.130;8.378;2023-04-30T00:33:59;92926.38;;;10.82;69.62
52249;BME280;38541;48.130;8.378;2023-04-30T00:36:25;92913.50;;;10.80;69.82
52249;BME280;38541;48.130;8.378;2023-04-30T00:38:53;92921.91;;;10.82;69.41
52249;BME280;38541;48.130;8.378;2023-04-30T00:41:19;92916.38;;;10.79;69.20
52249;BME280;38541;48.130;8.378;2023-04-30T00:43:46;92912.44;;;10.81;69.51
52249;BME280;38541;48.130;8.378;2023-04-30T00:46:13;92918.75;;;10.75;69.35
52249;BME280;38541;48.130;8.378;2023-04-30T00:48:39;92916.63;;;10.72;69.93
52249;BME280;38541;48.130;8.378;2023-04-30T00:51:06;92923.72;;;10.77;70.07
52249;BME280;38541;48.130;8.378;2023-04-30T00:53:33;92917.94;;;10.69;69.75
52249;BME280;38541;48.130;8.378;2023-04-30T00:56:00;92905.56;;;10.65;70.15
52249;BME280;38541;48.130;8.378;2023-04-30T00:58:26;92909.75;;;10.61;70.66
52249;BME280;38541;48.130;8.378;2023-04-30T01:00:53;92898.72;;;10.69;70.66
52249;BME280;38541;48.130;8.378;2023-04-30T01:03:20;92900.31;;;10.65;70.81
52249;BME280;38541;48.130;8.378;2023-04-30T01:05:48;92900.31;;;10.65;70.67
52249;BME280;38541;48.130;8.378;2023-04-30T01:08:15;92906.88;;;10.62;70.99
52249;BME280;38541;48.130;8.378;2023-04-30T01:10:54;92910.03;;;10.64;70.52
52249;BME280;38541;48.130;8.378;2023-04-30T01:13:29;92907.94;;;10.66;70.79
52249;BME280;38541;48.130;8.378;2023-04-30T01:16:32;92910.28;;;10.68;70.60
52249;BME280;38541;48.130;8.378;2023-04-30T01:19:06;92895.03;;;10.65;70.80
52249;BME280;38541;48.130;8.378;2023-04-30T01:21:35;92889.78;;;10.65;71.05
52249;BME280;38541;48.130;8.378;2023-04-30T01:24:21;92886.63;;;10.63;70.91
52249;BME280;38541;48.130;8.378;2023-04-30T01:29:39;92886.88;;;10.56;71.33
52249;BME280;38541;48.130;8.378;2023-04-30T01:32:09;92874.78;;;10.55;71.28
52249;BME280;38541;48.130;8.378;2023-04-30T01:34:36;92868.75;;;10.54;71.24
52249;BME280;38541;48.130;8.378;2023-04-30T01:37:21;92867.19;;;10.53;71.58
52249;BME280;38541;48.130;8.378;2023-04-30T01:42:47;92869.53;;;10.50;71.73
52249;BME280;38541;48.130;8.378;2023-04-30T01:45:31;92863.75;;;10.48;71.22
52249;BME280;38541;48.130;8.378;2023-04-30T01:48:22;92867.66;;;10.50;71.71
52249;BME280;38541;48.130;8.378;2023-04-30T01:51:02;92865.00;;;10.35;71.63
52249;BME280;38541;48.130;8.378;2023-04-30T01:53:42;92870.25;;;10.40;71.76
52249;BME280;38541;48.130;8.378;2023-04-30T01:56:26;92869.41;;;10.24;72.33
52249;BME280;38541;48.130;8.378;2023-04-30T01:58:53;92870.19;;;10.24;72.32
52249;BME280;38541;48.130;8.378;2023-04-30T02:01:38;92870.47;;;10.33;72.48
52249;BME280;38541;48.130;8.378;2023-04-30T02:04:05;92867.84;;;10.28;71.95
52249;BME280;38541;48.130;8.378;2023-04-30T02:06:31;92869.06;;;10.10;72.57
52249;BME280;38541;48.130;8.378;2023-04-30T02:08:58;92862.28;;;10.14;73.74
52249;BME280;38541;48.130;8.378;2023-04-30T02:11:30;92857.06;;;10.24;72.86
52249;BME280;38541;48.130;8.378;2023-04-30T02:13:57;92864.41;;;10.27;72.78
52249;BME280;38541;48.130;8.378;2023-04-30T02:16:24;92868.06;;;10.21;73.18
52249;BME280;38541;48.130;8.378;2023-04-30T02:18:50;92871.00;;;10.25;73.04
52249;BME280;38541;48.130;8.378;2023-04-30T02:21:17;92865.22;;;10.28;72.93
52249;BME280;38541;48.130;8.378;2023-04-30T02:23:45;92873.34;;;10.26;73.32
52249;BME280;38541;48.130;8.378;2023-04-30T02:26:12;92880.16;;;10.27;73.07
52249;BME280;38541;48.130;8.378;2023-04-30T02:28:39;92875.19;;;10.26;72.96
52249;BME280;38541;48.130;8.378;2023-04-30T02:31:05;92879.63;;;10.25;72.76
52249;BME280;38541;48.130;8.378;2023-04-30T02:33:32;92878.59;;;10.26;72.67
52249;BME280;38541;48.130;8.378;2023-04-30T02:35:59;92877.53;;;10.27;72.89
52249;BME280;38541;48.130;8.378;2023-04-30T02:38:25;92878.88;;;10.30;72.61
52249;BME280;38541;48.130;8.378;2023-04-30T02:40:52;92868.06;;;10.16;72.89
52249;BME280;38541;48.130;8.378;2023-04-30T02:43:18;92880.91;;;10.12;73.62
52249;BME280;38541;48.130;8.378;2023-04-30T02:45:45;92878.03;;;10.19;73.50
52249;BME280;38541;48.130;8.378;2023-04-30T02:48:12;92874.91;;;10.22;73.33
52249;BME280;38541;48.130;8.378;2023-04-30T02:50:38;92880.69;;;10.30;73.23
52249;BME280;38541;48.130;8.378;2023-04-30T02:53:05;92878.88;;;10.30;72.87
52249;BME280;38541;48.130;8.378;2023-04-30T02:55:31;92883.84;;;10.32;73.03
52249;BME280;38541;48.130;8.378;2023-04-30T02:57:58;92877.00;;;10.25;73.00
52249;BME280;38541;48.130;8.378;2023-04-30T03:00:25;92876.50;;;10.28;72.74
52249;BME280;38541;48.130;8.378;2023-04-30T03:02:51;92877.47;;;10.12;73.48
52249;BME280;38541;48.130;8.378;2023-04-30T03:05:18;92865.88;;;10.03;73.44
52249;BME280;38541;48.130;8.378;2023-04-30T03:07:44;92865.91;;;10.08;73.92
52249;BME280;38541;48.130;8.378;2023-04-30T03:10:11;92868.06;;;10.16;73.45
52249;BME280;38541;48.130;8.378;2023-04-30T03:12:37;92862.81;;;10.16;73.33
52249;BME280;38541;48.130;8.378;2023-04-30T03:15:04;92855.41;;;10.13;73.29
52249;BME280;38541;48.130;8.378;2023-04-30T03:17:31;92858.78;;;10.03;73.50
52249;BME280;38541;48.130;8.378;2023-04-30T03:19:57;92860.88;;;9.96;74.21
52249;BME280;38541;48.130;8.378;2023-04-30T03:22:24;92868.81;;;10.06;74.10
52249;BME280;38541;48.130;8.378;2023-04-30T03:24:52;92865.63;;;10.04;73.15
52249;BME280;38541;48.130;8.378;2023-04-30T03:27:18;92856.22;;;10.08;73.91
52249;BME280;38541;48.130;8.378;2023-04-30T03:29:45;92852.69;;;9.92;73.74
52249;BME280;38541;48.130;8.378;2023-04-30T03:32:11;92862.44;;;9.92;74.27
52249;BME280;38541;48.130;8.378;2023-04-30T03:34:38;92863.19;;;9.92;74.70
52249;BME280;38541;48.130;8.378;2023-04-30T03:37:04;92867.72;;;10.02;74.52
52249;BME280;38541;48.130;8.378;2023-04-30T03:39:31;92868.00;;;10.06;73.92
52249;BME280;38541;48.130;8.378;2023-04-30T03:41:57;92863.25;;;10.03;74.25
52249;BME280;38541;48.130;8.378;2023-04-30T03:44:23;92863.78;;;10.05;74.31
52249;BME280;38541;48.130;8.378;2023-04-30T03:46:50;92860.09;;;10.01;74.06
52249;BME280;38541;48.130;8.378;2023-04-30T03:49:16;92864.31;;;10.02;74.53
52249;BME280;38541;48.130;8.378;2023-04-30T03:51:43;92855.41;;;10.08;74.04
52249;BME280;38541;48.130;8.378;2023-04-30T03:54:09;92860.94;;;10.06;73.80
52249;BME280;38541;48.130;8.378;2023-04-30T03:56:36;92859.06;;;10.02;74.36
52249;BME280;38541;48.130;8.378;2023-04-30T03:59:04;92862.47;;;10.02;74.47
52249;BME280;38541;48.130;8.378;2023-04-30T04:01:31;92861.16;;;10.05;74.34
52249;BME280;38541;48.130;8.378;2023-04-30T04:03:58;92856.22;;;10.08;73.70
52249;BME280;38541;48.130;8.378;2023-04-30T04:06:25;92859.03;;;9.96;74.09
52249;BME280;38541;48.130;8.378;2023-04-30T04:08:52;92859.03;;;9.96;74.09
52249;BME280;38541;48.130;8.378;2023-04-30T04:11:19;92860.31;;;9.89;74.33
52249;BME280;38541;48.130;8.378;2023-04-30T04:13:46;92858.22;;;9.91;73.89
52249;BME280;38541;48.130;8.378;2023-04-30T04:16:13;92862.44;;;9.92;74.28
52249;BME280;38541;48.130;8.378;2023-04-30T04:18:39;92865.06;;;9.92;74.06
52249;BME280;38541;48.130;8.378;2023-04-30T04:21:06;92866.66;;;9.98;74.08
52249;BME280;38541;48.130;8.378;2023-04-30T04:23:33;92864.03;;;9.98;73.78
52249;BME280;38541;48.130;8.378;2023-04-30T04:25:59;92868.00;;;10.06;73.92
52249;BME280;38541;48.130;8.378;2023-04-30T04:28:26;92853.81;;;10.07;73.80
52249;BME280;38541;48.130;8.378;2023-04-30T04:30:54;92853.28;;;10.05;73.54
52249;BME280;38541;48.130;8.378;2023-04-30T04:33:20;92865.88;;;10.03;73.64
52249;BME280;38541;48.130;8.378;2023-04-30T04:35:47;92868.50;;;9.97;73.82
52249;BME280;38541;48.130;8.378;2023-04-30T04:38:14;92860.38;;;10.04;73.58
52249;BME280;38541;48.130;8.378;2023-04-30T04:40:40;92862.72;;;9.95;73.55
52249;BME280;38541;48.130;8.378;2023-04-30T04:43:07;92868.50;;;9.97;73.54
52249;BME280;38541;48.130;8.378;2023-04-30T04:45:34;92863.78;;;9.99;73.23
52249;BME280;38541;48.130;8.378;2023-04-30T04:48:01;92865.34;;;9.95;73.42
52249;BME280;38541;48.130;8.378;2023-04-30T04:50:27;92859.56;;;9.98;73.47
52249;BME280;38541;48.130;8.378;2023-04-30T04:52:54;92862.22;;;10.04;73.07
52249;BME280;38541;48.130;8.378;2023-04-30T04:55:20;92864.31;;;10.07;73.33
52249;BME280;38541;48.130;8.378;2023-04-30T04:57:47;92869.56;;;10.07;73.20
52249;BME280;38541;48.130;8.378;2023-04-30T05:00:13;92875.88;;;10.11;73.09
52249;BME280;38541;48.130;8.378;2023-04-30T05:02:40;92883.25;;;10.09;72.83
52249;BME280;38541;48.130;8.378;2023-04-30T05:05:08;92871.13;;;10.03;72.30
52249;BME280;38541;48.130;8.378;2023-04-30T05:07:35;92877.44;;;10.07;73.20
52249;BME280;38541;48.130;8.378;2023-04-30T05:10:02;92874.59;;;10.08;72.78
52249;BME280;38541;48.130;8.378;2023-04-30T05:12:29;92885.34;;;10.12;73.19
52249;BME280;38541;48.130;8.378;2023-04-30T05:14:55;92883.28;;;10.19;72.62
52249;BME280;38541;48.130;8.378;2023-04-30T05:17:21;92884.38;;;10.23;72.30
52249;BME280;38541;48.130;8.378;2023-04-30T05:19:48;92881.72;;;10.23;72.04
52249;BME280;38541;48.130;8.378;2023-04-30T05:22:16;92888.56;;;10.30;71.93
52249;BME280;38541;48.130;8.378;2023-04-30T05:24:42;92890.38;;;10.19;71.69
52249;BME280;38541;48.130;8.378;2023-04-30T05:27:09;92888.28;;;10.21;72.09
52249;BME280;38541;48.130;8.378;2023-04-30T05:29:35;92886.97;;;10.18;71.69
52249;BME280;38541;48.130;8.378;2023-04-30T05:32:02;92883.31;;;10.30;71.55
52249;BME280;38541;48.130;8.378;2023-04-30T05:34:29;92887.63;;;10.41;71.56
52249;BME280;38541;48.130;8.378;2023-04-30T05:36:55;92887.09;;;10.44;71.00
52249;BME280;38541;48.130;8.378;2023-04-30T05:39:21;92887.06;;;10.39;71.39
52249;BME280;38541;48.130;8.378;2023-04-30T05:41:48;92889.94;;;10.37;71.53
52249;BME280;38541;48.130;8.378;2023-04-30T05:44:16;92893.66;;;10.41;70.56
52249;BME280;38541;48.130;8.378;2023-04-30T05:46:43;92882.56;;;10.39;70.69
52249;BME280;38541;48.130;8.378;2023-04-30T05:49:09;92883.69;;;10.44;70.93
52249;BME280;38541;48.130;8.378;2023-04-30T05:51:36;92882.41;;;10.56;70.23
52249;BME280;38541;48.130;8.378;2023-04-30T05:54:03;92880.56;;;10.52;69.94
52249;BME280;38541;48.130;8.378;2023-04-30T05:56:29;92882.44;;;10.62;70.10
52249;BME280;38541;48.130;8.378;2023-04-30T05:58:55;92880.34;;;10.69;69.92
52249;BME280;38541;48.130;8.378;2023-04-30T06:01:22;92879.28;;;10.70;70.00
52249;BME280;38541;48.130;8.378;2023-04-30T06:03:48;92875.66;;;10.76;70.01
52249;BME280;38541;48.130;8.378;2023-04-30T06:06:15;92875.34;;;10.67;69.51
52249;BME280;38541;48.130;8.378;2023-04-30T06:08:42;92875.88;;;10.75;70.06
52249;BME280;38541;48.130;8.378;2023-04-30T06:11:11;92872.53;;;10.90;69.81
52249;BME280;38541;48.130;8.378;2023-04-30T06:13:38;92873.50;;;10.68;68.94
52249;BME280;38541;48.130;8.378;2023-04-30T06:16:06;92873.53;;;10.73;69.61
52249;BME280;38541;48.130;8.378;2023-04-30T06:18:33;92860.94;;;10.80;69.22
52249;BME280;38541;48.130;8.378;2023-04-30T06:21:00;92861.25;;;10.99;69.37
52249;BME280;38541;48.130;8.378;2023-04-30T06:23:26;92857.28;;;10.92;68.65
52249;BME280;38541;48.130;8.378;2023-04-30T06:25:53;92855.72;;;11.11;68.82
52249;BME280;38541;48.130;8.378;2023-04-30T06:28:19;92859.66;;;11.09;68.34
52249;BME280;38541;48.130;8.378;2023-04-30T06:30:46;92861.75;;;11.17;68.40
52249;BME280;38541;48.130;8.378;2023-04-30T06:33:13;92862.81;;;11.11;67.38
52249;BME280;38541;48.130;8.378;2023-04-30T06:35:39;92861.50;;;11.13;68.08
52249;BME280;38541;48.130;8.378;2023-04-30T06:38:05;92861.78;;;11.22;67.98
52249;BME280;38541;48.130;8.378;2023-04-30T06:40:32;92861.53;;;11.29;67.46
52249;BME280;38541;48.130;8.378;2023-04-30T06:42:59;92863.06;;;11.20;67.70
52249;BME280;38541;48.130;8.378;2023-04-30T06:45:25;92862.56;;;11.33;67.57
52249;BME280;38541;48.130;8.378;2023-04-30T06:47:52;92863.06;;;11.25;67.42
52249;BME280;38541;48.130;8.378;2023-04-30T06:50:19;92866.75;;;11.39;67.20
52249;BME280;38541;48.130;8.378;2023-04-30T06:52:46;92860.44;;;11.40;66.91
52249;BME280;38541;48.130;8.378;2023-04-30T06:55:13;92859.94;;;11.54;66.93
52249;BME280;38541;48.130;8.378;2023-04-30T06:57:39;92858.63;;;11.56;66.10
52249;BME280;38541;48.130;8.378;2023-04-30T07:00:06;92863.59;;;11.58;66.05
52249;BME280;38541;48.130;8.378;2023-04-30T07:02:34;92855.97;;;11.67;67.20
52249;BME280;38541;48.130;8.378;2023-04-30T07:05:01;92862.50;;;11.90;66.58
52249;BME280;38541;48.130;8.378;2023-04-30T07:07:28;92866.19;;;12.05;65.59
52249;BME280;38541;48.130;8.378;2023-04-30T07:09:54;92859.84;;;12.11;64.91
52249;BME280;38541;48.130;8.378;2023-04-30T07:12:22;92865.88;;;12.11;65.08
52249;BME280;38541;48.130;8.378;2023-04-30T07:14:49;92868.81;;;12.10;64.88
52249;BME280;38541;48.130;8.378;2023-04-30T07:17:15;92857.19;;;12.01;65.21
52249;BME280;38541;48.130;8.378;2023-04-30T07:19:42;92863.00;;;12.13;64.91
52249;BME280;38541;48.130;8.378;2023-04-30T07:22:08;92853.75;;;12.21;64.16
52249;BME280;38541;48.130;8.378;2023-04-30T07:24:35;92865.06;;;12.26;65.07
52249;BME280;38541;48.130;8.378;2023-04-30T07:27:01;92861.84;;;12.45;64.72
52249;BME280;38541;48.130;8.378;2023-04-30T07:29:29;92859.44;;;12.54;64.28
52249;BME280;38541;48.130;8.378;2023-04-30T07:31:55;92860.94;;;12.65;63.98
52249;BME280;38541;48.130;8.378;2023-04-30T07:34:22;92860.72;;;12.56;62.42
52249;BME280;38541;48.130;8.378;2023-04-30T07:36:49;92863.34;;;12.62;63.36
52249;BME280;38541;48.130;8.378;2023-04-30T07:39:16;92858.81;;;12.73;62.27
52249;BME280;38541;48.130;8.378;2023-04-30T07:41:43;92858.47;;;12.84;63.01
52249;BME280;38541;48.130;8.378;2023-04-30T07:44:09;92851.19;;;13.06;62.44
52249;BME280;38541;48.130;8.378;2023-04-30T07:46:37;92846.97;;;13.10;61.83
52249;BME280;38541;48.130;8.378;2023-04-30T07:49:03;92850.28;;;13.26;61.99
52249;BME280;38541;48.130;8.378;2023-04-30T07:51:30;92852.00;;;13.41;61.41
52249;BME280;38541;48.130;8.378;2023-04-30T07:53:59;92863.16;;;13.33;60.18
52249;BME280;38541;48.130;8.378;2023-04-30T07:56:25;92857.94;;;13.27;60.08
52249;BME280;38541;48.130;8.378;2023-04-30T07:58:52;92853.22;;;13.19;60.09
52249;BME280;38541;48.130;8.378;2023-04-30T08:01:18;92852.97;;;13.16;60.87
52249;BME280;38541;48.130;8.378;2023-04-30T08:03:44;92852.91;;;13.26;60.80
52249;BME280;38541;48.130;8.378;2023-04-30T08:06:11;92848.03;;;13.09;61.29
52249;BME280;38541;48.130;8.378;2023-04-30T08:08:38;92849.81;;;13.19;61.64
52249;BME280;38541;48.130;8.378;2023-04-30T08:11:05;92849.66;;;13.39;61.93
52249;BME280;38541;48.130;8.378;2023-04-30T08:13:31;92838.84;;;13.70;60.71
52249;BME280;38541;48.130;8.378;2023-04-30T08:15:57;92847.09;;;13.93;59.72
52249;BME280;38541;48.130;8.378;2023-04-30T08:18:24;92839.22;;;13.88;58.94
52249;BME280;38541;48.130;8.378;2023-04-30T08:20:50;92836.72;;;13.73;59.69
52249;BME280;38541;48.130;8.378;2023-04-30T08:23:17;92845.28;;;13.89;59.52
52249;BME280;38541;48.130;8.378;2023-04-30T08:25:43;92842.81;;;13.97;59.96
52249;BME280;38541;48.130;8.378;2023-04-30T08:28:10;92850.41;;;14.04;59.14
52249;BME280;38541;48.130;8.378;2023-04-30T08:30:37;92855.19;;;14.26;59.14
52249;BME280;38541;48.130;8.378;2023-04-30T08:33:03;92854.19;;;14.22;58.35
52249;BME280;38541;48.130;8.378;2023-04-30T08:35:30;92847.94;;;14.13;57.28
52249;BME280;38541;48.130;8.378;2023-04-30T08:37:57;92856.75;;;14.27;57.11
52249;BME280;38541;48.130;8.378;2023-04-30T08:40:23;92845.47;;;14.65;58.13
52249;BME280;38541;48.130;8.378;2023-04-30T08:43:13;92853.44;;;14.84;56.76
52249;BME280;38541;48.130;8.378;2023-04-30T08:45:41;92862.34;;;14.69;55.87
52249;BME280;38541;48.130;8.378;2023-04-30T08:48:09;92863.59;;;14.77;56.98
52249;BME280;38541;48.130;8.378;2023-04-30T08:50:39;92865.75;;;14.75;55.07
52249;BME280;38541;48.130;8.378;2023-04-30T08:53:07;92862.50;;;14.59;55.02
52249;BME280;38541;48.130;8.378;2023-04-30T08:55:33;92855.97;;;14.51;55.10
52249;BME280;38541;48.130;8.378;2023-04-30T08:58:00;92858.72;;;14.41;55.09
52249;BME280;38541;48.130;8.378;2023-04-30T09:00:27;92865.34;;;14.63;54.97
52249;BME280;38541;48.130;8.378;2023-04-30T09:02:53;92858.38;;;14.72;54.83
52249;BME280;38541;48.130;8.378;2023-04-30T09:05:20;92862.69;;;14.63;53.04
52249;BME280;38541;48.130;8.378;2023-04-30T09:07:46;92867.81;;;14.54;53.43
52249;BME280;38541;48.130;8.378;2023-04-30T09:10:20;92866.84;;;14.69;54.42
52249;BME280;38541;48.130;8.378;2023-04-30T09:13:04;92869.75;;;14.92;52.92
52249;BME280;38541;48.130;8.378;2023-04-30T09:15:31;92871.91;;;14.90;51.80
52249;BME280;38541;48.130;8.378;2023-04-30T09:18:18;92865.69;;;15.00;52.75
52249;BME280;38541;48.130;8.378;2023-04-30T09:20:59;92868.13;;;14.96;54.37
52249;BME280;38541;48.130;8.378;2023-04-30T09:23:27;92861.75;;;15.16;54.10
52249;BME280;38541;48.130;8.378;2023-04-30T09:25:54;92874.06;;;15.26;53.76
52249;BME280;38541;48.130;8.378;2023-04-30T09:28:22;92871.16;;;15.41;51.62
52249;BME280;38541;48.130;8.378;2023-04-30T09:30:50;92871.78;;;15.52;51.55
52249;BME280;38541;48.130;8.378;2023-04-30T09:33:17;92865.47;;;15.67;53.00
52249;BME280;38541;48.130;8.378;2023-04-30T09:35:44;92870.88;;;15.76;52.29
52249;BME280;38541;48.130;8.378;2023-04-30T09:38:30;92862.91;;;16.09;52.62
52249;BME280;38541;48.130;8.378;2023-04-30T09:40:58;92870.41;;;16.35;50.99
52249;BME280;38541;48.130;8.378;2023-04-30T09:43:26;92863.91;;;16.42;50.26
52249;BME280;38541;48.130;8.378;2023-04-30T09:45:53;92868.41;;;16.27;52.28
52249;BME280;38541;48.130;8.378;2023-04-30T09:48:21;92860.66;;;16.31;51.05
52249;BME280;38541;48.130;8.378;2023-04-30T09:50:49;92861.53;;;16.26;50.41
52249;BME280;38541;48.130;8.378;2023-04-30T09:53:17;92856.44;;;16.44;50.62
52249;BME280;38541;48.130;8.378;2023-04-30T09:55:46;92866.25;;;16.71;49.21
52249;BME280;38541;48.130;8.378;2023-04-30T09:58:14;92859.38;;;16.70;49.41
52249;BME280;38541;48.130;8.378;2023-04-30T10:00:42;92863.03;;;16.46;49.68
52249;BME280;38541;48.130;8.378;2023-04-30T10:03:10;92872.16;;;16.40;48.93
52249;BME280;38541;48.130;8.378;2023-04-30T10:05:41;92866.88;;;16.40;49.96
52249;BME280;38541;48.130;8.378;2023-04-30T10:08:31;92853.25;;;16.83;47.52
52249;BME280;38541;48.130;8.378;2023-04-30T10:11:03;92854.31;;;16.96;46.73
52249;BME280;38541;48.130;8.378;2023-04-30T10:13:32;92854.19;;;17.16;46.53
52249;BME280;38541;48.130;8.378;2023-04-30T10:16:06;92843.22;;;16.94;46.30
52249;BME280;38541;48.130;8.378;2023-04-30T10:18:38;92836.94;;;16.90;47.38
52249;BME280;38541;48.130;8.378;2023-04-30T10:21:06;92840.59;;;16.80;46.65
52249;BME280;38541;48.130;8.378;2023-04-30T10:23:37;92838.56;;;16.35;48.68
52249;BME280;38541;48.130;8.378;2023-04-30T10:26:05;92832.97;;;16.51;49.38
52249;BME280;38541;48.130;8.378;2023-04-30T10:28:32;92834.81;;;16.50;47.88
52249;BME280;38541;48.130;8.378;2023-04-30T10:30:58;92828.56;;;16.97;47.55
52249;BME280;38541;48.130;8.378;2023-04-30T10:33:36;92825.41;;;17.09;47.83
52249;BME280;38541;48.130;8.378;2023-04-30T10:36:12;92824.03;;;16.97;46.40
52249;BME280;38541;48.130;8.378;2023-04-30T10:38:40;92822.22;;;16.70;46.09
52249;BME280;38541;48.130;8.378;2023-04-30T10:41:06;92824.25;;;16.22;47.43
52249;BME280;38541;48.130;8.378;2023-04-30T10:43:35;92820.81;;;16.08;49.06
52249;BME280;38541;48.130;8.378;2023-04-30T10:46:02;92833.25;;;16.49;48.22
52249;BME280;38541;48.130;8.378;2023-04-30T10:48:32;92820.31;;;16.34;47.39
52249;BME280;38541;48.130;8.378;2023-04-30T10:51:00;92829.50;;;16.78;47.96
52249;BME280;38541;48.130;8.378;2023-04-30T10:53:29;92828.34;;;17.07;46.87
52249;BME280;38541;48.130;8.378;2023-04-30T10:56:04;92821.53;;;17.15;44.66
52249;BME280;38541;48.130;8.378;2023-04-30T10:58:34;92825.50;;;17.04;45.76
52249;BME280;38541;48.130;8.378;2023-04-30T11:01:11;92815.56;;;17.32;45.43
52249;BME280;38541;48.130;8.378;2023-04-30T11:03:43;92815.31;;;17.43;45.24
52249;BME280;38541;48.130;8.378;2023-04-30T11:09:38;92810.91;;;16.78;45.75
52249;BME280;38541;48.130;8.378;2023-04-30T11:12:18;92807.47;;;17.15;46.49
52249;BME280;38541;48.130;8.378;2023-04-30T11:14:45;92812.91;;;17.55;44.90
52249;BME280;38541;48.130;8.378;2023-04-30T11:17:21;92818.22;;;17.55;44.07
52249;BME280;38541;48.130;8.378;2023-04-30T11:19:50;92817.09;;;17.47;44.11
52249;BME280;38541;48.130;8.378;2023-04-30T11:22:20;92812.00;;;17.37;44.04
52249;BME280;38541;48.130;8.378;2023-04-30T11:24:53;92811.81;;;17.56;44.27
52249;BME280;38541;48.130;8.378;2023-04-30T11:27:28;92802.25;;;17.46;44.83
52249;BME280;38541;48.130;8.378;2023-04-30T11:29:57;92809.28;;;17.28;44.04
52249;BME280;38541;48.130;8.378;2023-04-30T11:32:30;92813.94;;;16.86;45.10
52249;BME280;38541;48.130;8.378;2023-04-30T11:34:58;92809.97;;;16.97;44.69
52249;BME280;38541;48.130;8.378;2023-04-30T11:37:31;92804.41;;;17.21;44.98
52249;BME280;38541;48.130;8.378;2023-04-30T11:40:02;92803.00;;;17.47;42.83
52249;BME280;38541;48.130;8.378;2023-04-30T11:42:30;92802.81;;;17.97;43.25
52249;BME280;38541;48.130;8.378;2023-04-30T11:45:07;92791.97;;;18.25;42.24
52249;BME280;38541;48.130;8.378;2023-04-30T11:47:38;92800.69;;;18.75;43.15
52249;BME280;38541;48.130;8.378;2023-04-30T11:50:10;92798.03;;;18.93;41.47
52249;BME280;38541;48.130;8.378;2023-04-30T11:52:38;92808.88;;;18.96;40.66
52249;BME280;38541;48.130;8.378;2023-04-30T11:55:12;92804.47;;;18.92;40.48
52249;BME280;38541;48.130;8.378;2023-04-30T11:57:44;92796.13;;;18.58;41.24
52249;BME280;38541;48.130;8.378;2023-04-30T12:00:16;92804.72;;;18.55;41.94
52249;BME280;38541;48.130;8.378;2023-04-30T12:02:46;92804.53;;;18.34;40.76
52249;BME280;38541;48.130;8.378;2023-04-30T12:05:15;92800.22;;;18.06;41.36
52249;BME280;38541;48.130;8.378;2023-04-30T12:07:59;92793.47;;;18.09;42.20
52249;BME280;38541;48.130;8.378;2023-04-30T12:10:26;92799.19;;;18.25;42.97
52249;BME280;38541;48.130;8.378;2023-04-30T12:12:52;92802.59;;;17.85;42.13
52249;BME280;38541;48.130;8.378;2023-04-30T12:15:21;92802.38;;;17.73;43.19
52249;BME280;38541;48.130;8.378;2023-04-30T12:17:58;92809.13;;;18.10;42.92
52249;BME280;38541;48.130;8.378;2023-04-30T12:20:28;92800.84;;;18.03;42.22
52249;BME280;38541;48.130;8.378;2023-04-30T12:22:56;92807.94;;;17.94;43.92
52249;BME280;38541;48.130;8.378;2023-04-30T12:25:27;92802.91;;;18.15;43.08
52249;BME280;38541;48.130;8.378;2023-04-30T12:27:53;92799.03;;;18.30;42.62
52249;BME280;38541;48.130;8.378;2023-04-30T12:30:22;92803.00;;;18.50;40.76
52249;BME280;38541;48.130;8.378;2023-04-30T12:32:51;92799.28;;;18.69;41.67
52249;BME280;38541;48.130;8.378;2023-04-30T12:35:22;92806.91;;;18.62;42.19
52249;BME280;38541;48.130;8.378;2023-04-30T12:38:00;92798.78;;;18.49;42.29
52249;BME280;38541;48.130;8.378;2023-04-30T12:40:27;92807.41;;;18.81;42.60
52249;BME280;38541;48.130;8.378;2023-04-30T12:43:01;92810.13;;;18.99;39.44
52249;BME280;38541;48.130;8.378;2023-04-30T12:48:13;92791.34;;;20.05;38.16
52249;BME280;38541;48.130;8.378;2023-04-30T12:50:40;92787.81;;;20.52;37.72
52249;BME280;38541;48.130;8.378;2023-04-30T12:53:07;92798.88;;;20.33;37.56
52249;BME280;38541;48.130;8.378;2023-04-30T12:55:34;92795.78;;;19.74;39.28
52249;BME280;38541;48.130;8.378;2023-04-30T12:58:03;92793.00;;;20.48;37.90
52249;BME280;38541;48.130;8.378;2023-04-30T13:00:43;92791.34;;;20.65;37.21
52249;BME280;38541;48.130;8.378;2023-04-30T13:03:11;92782.78;;;19.64;37.81
52249;BME280;38541;48.130;8.378;2023-04-30T13:05:39;92781.59;;;19.52;37.88
52249;BME280;38541;48.130;8.378;2023-04-30T13:08:07;92769.53;;;20.03;37.50
52249;BME280;38541;48.130;8.378;2023-04-30T13:10:34;92770.56;;;20.19;38.17
52249;BME280;38541;48.130;8.378;2023-04-30T13:13:01;92775.75;;;20.97;37.24
52249;BME280;38541;48.130;8.378;2023-04-30T13:15:27;92777.00;;;20.48;37.57
52249;BME280;38541;48.130;8.378;2023-04-30T13:17:54;92780.94;;;19.56;38.50
52249;BME280;38541;48.130;8.378;2023-04-30T13:20:21;92777.41;;;19.25;38.68